WZZ5517 EPMO-LIME
Flight info
| Callsign | WZZ5517 |
|---|---|
| Flight time | 1h 47m |
| Altitude | 34000 |
| Route | EVINA N744 TUSIN DCT MIKOV DCT DETSA DCT RENTA DCT ATPED M984 LUSIL T772 EKLIB |
| Aircraft | A21N/M-SDE1E2E3FGIJ1J4RWXY/LB1 |
Departure
| Time | 2026-05-07 12:10 |
|---|---|
| Airport | Warsaw Modlin Airport (EPMO) |
Arrival
| Time | 2026-05-07 13:58 |
|---|---|
| Airport | Il Caravaggio International Airport (LIME) |
| Time | Latitude | Longitude | Altitude | Speed | Heading |
|---|---|---|---|---|---|
| 2026-05-07 11:51 | 52.44753 | 20.65339 | 316 ft | 0 kts | 206° |
| 2026-05-07 12:02 | 52.44762 | 20.65346 | 354 ft | 3 kts | 206° |
| 2026-05-07 12:02 | 52.44779 | 20.65359 | 350 ft | 3 kts | 185° |
| 2026-05-07 12:02 | 52.44793 | 20.65355 | 349 ft | 3 kts | 126° |
| 2026-05-07 12:02 | 52.44798 | 20.65334 | 350 ft | 2 kts | 82° |
| 2026-05-07 12:03 | 52.44796 | 20.65314 | 352 ft | 3 kts | 81° |
| 2026-05-07 12:03 | 52.44794 | 20.65294 | 350 ft | 0 kts | 81° |
| 2026-05-07 12:03 | 52.44794 | 20.65293 | 350 ft | 0 kts | 81° |
| 2026-05-07 12:05 | 52.44796 | 20.65311 | 348 ft | 4 kts | 81° |
| 2026-05-07 12:05 | 52.44802 | 20.65377 | 352 ft | 8 kts | 81° |
| 2026-05-07 12:06 | 52.44813 | 20.65494 | 347 ft | 13 kts | 81° |
| 2026-05-07 12:06 | 52.44827 | 20.65647 | 343 ft | 14 kts | 82° |
| 2026-05-07 12:06 | 52.44841 | 20.65817 | 350 ft | 16 kts | 82° |
| 2026-05-07 12:06 | 52.44859 | 20.66003 | 343 ft | 17 kts | 81° |
| 2026-05-07 12:07 | 52.44878 | 20.66203 | 343 ft | 18 kts | 82° |
| 2026-05-07 12:07 | 52.44897 | 20.66418 | 347 ft | 20 kts | 82° |
| 2026-05-07 12:07 | 52.44919 | 20.66645 | 343 ft | 21 kts | 81° |
| 2026-05-07 12:07 | 52.44939 | 20.66860 | 352 ft | 15 kts | 82° |
| 2026-05-07 12:08 | 52.44955 | 20.67024 | 353 ft | 11 kts | 76° |
| 2026-05-07 12:08 | 52.45023 | 20.67075 | 345 ft | 12 kts | 356° |
| 2026-05-07 12:08 | 52.45103 | 20.67056 | 353 ft | 12 kts | 351° |
| 2026-05-07 12:08 | 52.45160 | 20.67041 | 344 ft | 5 kts | 351° |
| 2026-05-07 12:09 | 52.45201 | 20.67025 | 347 ft | 7 kts | 343° |
| 2026-05-07 12:09 | 52.45254 | 20.66997 | 346 ft | 9 kts | 344° |
| 2026-05-07 12:09 | 52.45290 | 20.66971 | 350 ft | 5 kts | 281° |
| 2026-05-07 12:09 | 52.45282 | 20.66883 | 351 ft | 18 kts | 261° |
| 2026-05-07 12:10 | 52.45219 | 20.66215 | 343 ft | 98 kts | 262° |
| 2026-05-07 12:10 | 52.45081 | 20.64751 | 368 ft | 157 kts | 261° |
| 2026-05-07 12:10 | 52.44905 | 20.63017 | 1050 ft | 154 kts | 264° |
| 2026-05-07 12:10 | 52.44720 | 20.61243 | 1692 ft | 160 kts | 264° |
| 2026-05-07 12:11 | 52.44566 | 20.59428 | 2292 ft | 162 kts | 263° |
| 2026-05-07 12:11 | 52.44393 | 20.57595 | 2926 ft | 163 kts | 261° |
| 2026-05-07 12:11 | 52.44216 | 20.55749 | 3565 ft | 166 kts | 261° |
| 2026-05-07 12:11 | 52.44047 | 20.53848 | 4202 ft | 170 kts | 261° |
| 2026-05-07 12:12 | 52.43788 | 20.51874 | 4620 ft | 190 kts | 239° |
| 2026-05-07 12:12 | 52.42778 | 20.50282 | 4900 ft | 219 kts | 210° |
| 2026-05-07 12:12 | 52.41314 | 20.49165 | 5291 ft | 244 kts | 205° |
| 2026-05-07 12:12 | 52.39718 | 20.47993 | 5932 ft | 256 kts | 206° |
| 2026-05-07 12:13 | 52.38088 | 20.46756 | 6756 ft | 260 kts | 207° |
| 2026-05-07 12:13 | 52.36436 | 20.45481 | 7561 ft | 264 kts | 207° |
| 2026-05-07 12:13 | 52.34770 | 20.44182 | 8438 ft | 266 kts | 207° |
| 2026-05-07 12:13 | 52.33096 | 20.42863 | 9293 ft | 268 kts | 208° |
| 2026-05-07 12:14 | 52.31407 | 20.41530 | 10105 ft | 272 kts | 208° |
| 2026-05-07 12:14 | 52.29652 | 20.40144 | 10547 ft | 289 kts | 207° |
| 2026-05-07 12:14 | 52.27791 | 20.38673 | 10940 ft | 305 kts | 207° |
| 2026-05-07 12:14 | 52.25861 | 20.37151 | 11594 ft | 311 kts | 207° |
| 2026-05-07 12:15 | 52.23904 | 20.35611 | 12357 ft | 314 kts | 207° |
| 2026-05-07 12:15 | 52.21933 | 20.34054 | 13161 ft | 316 kts | 207° |
| 2026-05-07 12:15 | 52.19946 | 20.32483 | 13951 ft | 318 kts | 206° |
| 2026-05-07 12:15 | 52.17942 | 20.30898 | 14636 ft | 321 kts | 206° |
| 2026-05-07 12:16 | 52.15922 | 20.29304 | 15312 ft | 325 kts | 206° |
| 2026-05-07 12:16 | 52.13877 | 20.27697 | 15983 ft | 329 kts | 206° |
| 2026-05-07 12:16 | 52.11804 | 20.26071 | 16654 ft | 332 kts | 206° |
| 2026-05-07 12:16 | 52.09708 | 20.24428 | 17323 ft | 336 kts | 207° |
| 2026-05-07 12:17 | 52.07590 | 20.22769 | 17984 ft | 340 kts | 207° |
| 2026-05-07 12:17 | 52.05451 | 20.21091 | 18583 ft | 343 kts | 207° |
| 2026-05-07 12:17 | 52.03295 | 20.19399 | 19180 ft | 346 kts | 207° |
| 2026-05-07 12:17 | 52.01120 | 20.17700 | 19783 ft | 348 kts | 207° |
| 2026-05-07 12:18 | 51.98933 | 20.15996 | 20391 ft | 349 kts | 207° |
| 2026-05-07 12:18 | 51.96742 | 20.14288 | 21014 ft | 351 kts | 207° |
| 2026-05-07 12:18 | 51.94535 | 20.12566 | 21624 ft | 352 kts | 207° |
| 2026-05-07 12:18 | 51.92324 | 20.10842 | 22218 ft | 354 kts | 207° |
| 2026-05-07 12:19 | 51.90097 | 20.09115 | 22803 ft | 356 kts | 207° |
| 2026-05-07 12:19 | 51.87857 | 20.07385 | 23389 ft | 358 kts | 207° |
| 2026-05-07 12:19 | 51.85602 | 20.05642 | 23885 ft | 360 kts | 207° |
| 2026-05-07 12:19 | 51.83342 | 20.03885 | 24364 ft | 361 kts | 207° |
| 2026-05-07 12:20 | 51.81075 | 20.02126 | 24820 ft | 362 kts | 207° |
| 2026-05-07 12:20 | 51.78800 | 20.00369 | 25259 ft | 363 kts | 206° |
| 2026-05-07 12:20 | 51.76515 | 19.98605 | 25687 ft | 365 kts | 206° |
| 2026-05-07 12:20 | 51.74249 | 19.96857 | 26101 ft | 366 kts | 206° |
| 2026-05-07 12:21 | 51.71919 | 19.95061 | 26521 ft | 367 kts | 206° |
| 2026-05-07 12:21 | 51.69642 | 19.93307 | 26923 ft | 368 kts | 206° |
| 2026-05-07 12:21 | 51.67325 | 19.91527 | 27327 ft | 370 kts | 206° |
| 2026-05-07 12:21 | 51.64997 | 19.89738 | 27730 ft | 371 kts | 206° |
| 2026-05-07 12:22 | 51.62661 | 19.87951 | 28121 ft | 373 kts | 206° |
| 2026-05-07 12:22 | 51.60313 | 19.86160 | 28502 ft | 374 kts | 206° |
| 2026-05-07 12:22 | 51.57962 | 19.84358 | 28864 ft | 375 kts | 206° |
| 2026-05-07 12:22 | 51.55601 | 19.82554 | 29211 ft | 376 kts | 205° |
| 2026-05-07 12:23 | 51.53234 | 19.80747 | 29543 ft | 378 kts | 205° |
| 2026-05-07 12:23 | 51.50852 | 19.78933 | 29867 ft | 379 kts | 205° |
| 2026-05-07 12:23 | 51.48461 | 19.77111 | 30167 ft | 381 kts | 205° |
| 2026-05-07 12:23 | 51.46060 | 19.75284 | 30421 ft | 383 kts | 205° |
| 2026-05-07 12:24 | 51.43652 | 19.73452 | 30677 ft | 384 kts | 205° |
| 2026-05-07 12:24 | 51.41233 | 19.71617 | 30919 ft | 386 kts | 205° |
| 2026-05-07 12:24 | 51.38797 | 19.69775 | 31163 ft | 388 kts | 205° |
| 2026-05-07 12:24 | 51.36353 | 19.67929 | 31394 ft | 389 kts | 205° |
| 2026-05-07 12:25 | 51.33902 | 19.66077 | 31624 ft | 391 kts | 205° |
| 2026-05-07 12:25 | 51.31437 | 19.64215 | 31845 ft | 392 kts | 205° |
| 2026-05-07 12:25 | 51.28964 | 19.62353 | 32093 ft | 393 kts | 205° |
| 2026-05-07 12:25 | 51.26493 | 19.60493 | 32377 ft | 392 kts | 205° |
| 2026-05-07 12:26 | 51.24030 | 19.58641 | 32657 ft | 392 kts | 205° |
| 2026-05-07 12:26 | 51.21568 | 19.56790 | 32944 ft | 391 kts | 205° |
| 2026-05-07 12:26 | 51.19110 | 19.54942 | 33203 ft | 390 kts | 205° |
| 2026-05-07 12:26 | 51.16654 | 19.53099 | 33470 ft | 390 kts | 205° |
| 2026-05-07 12:27 | 51.14203 | 19.51262 | 33722 ft | 389 kts | 205° |
| 2026-05-07 12:27 | 51.11751 | 19.49427 | 33973 ft | 389 kts | 205° |
| 2026-05-07 12:27 | 51.09304 | 19.47602 | 34171 ft | 389 kts | 205° |
| 2026-05-07 12:27 | 51.06856 | 19.45777 | 34333 ft | 389 kts | 205° |
| 2026-05-07 12:28 | 51.04402 | 19.43947 | 34493 ft | 390 kts | 205° |
| 2026-05-07 12:28 | 51.01943 | 19.42120 | 34648 ft | 390 kts | 205° |
| 2026-05-07 12:28 | 50.99478 | 19.40299 | 34800 ft | 391 kts | 205° |
| 2026-05-07 12:28 | 50.97014 | 19.38477 | 34945 ft | 391 kts | 205° |
| 2026-05-07 12:29 | 50.94545 | 19.36649 | 35091 ft | 392 kts | 205° |
| 2026-05-07 12:29 | 50.92104 | 19.34839 | 35232 ft | 392 kts | 205° |
| 2026-05-07 12:29 | 50.89596 | 19.32980 | 35367 ft | 393 kts | 205° |
| 2026-05-07 12:29 | 50.87150 | 19.31174 | 35503 ft | 394 kts | 205° |
| 2026-05-07 12:30 | 50.84669 | 19.29339 | 35631 ft | 394 kts | 205° |
| 2026-05-07 12:30 | 50.82184 | 19.27502 | 35771 ft | 394 kts | 205° |
| 2026-05-07 12:30 | 50.79696 | 19.25666 | 35909 ft | 394 kts | 205° |
| 2026-05-07 12:31 | 50.74697 | 19.21983 | 35953 ft | 398 kts | 205° |
| 2026-05-07 12:31 | 50.69679 | 19.18300 | 35929 ft | 398 kts | 205° |
| 2026-05-07 12:32 | 50.64652 | 19.14617 | 35920 ft | 399 kts | 205° |
| 2026-05-07 12:32 | 50.59618 | 19.10944 | 35933 ft | 399 kts | 205° |
| 2026-05-07 12:33 | 50.52067 | 19.05445 | 35936 ft | 399 kts | 205° |
| 2026-05-07 12:33 | 50.47030 | 19.01790 | 35936 ft | 399 kts | 205° |
| 2026-05-07 12:34 | 50.41993 | 18.98151 | 35935 ft | 399 kts | 205° |
| 2026-05-07 12:34 | 50.37769 | 18.95097 | 35933 ft | 399 kts | 205° |
| 2026-05-07 12:35 | 50.32725 | 18.91462 | 35928 ft | 399 kts | 205° |
| 2026-05-07 12:35 | 50.27683 | 18.87835 | 35926 ft | 399 kts | 205° |
| 2026-05-07 12:36 | 50.22641 | 18.84214 | 35919 ft | 399 kts | 205° |
| 2026-05-07 12:36 | 50.17635 | 18.80628 | 35915 ft | 399 kts | 205° |
| 2026-05-07 12:37 | 50.12588 | 18.77031 | 35918 ft | 399 kts | 205° |
| 2026-05-07 12:37 | 50.07545 | 18.73436 | 35918 ft | 399 kts | 205° |
| 2026-05-07 12:38 | 50.02497 | 18.69847 | 35919 ft | 398 kts | 205° |
| 2026-05-07 12:38 | 49.97462 | 18.66273 | 35921 ft | 398 kts | 205° |
| 2026-05-07 12:39 | 49.92426 | 18.62711 | 35924 ft | 398 kts | 205° |
| 2026-05-07 12:39 | 49.87394 | 18.59136 | 35921 ft | 398 kts | 207° |
| 2026-05-07 12:40 | 49.82981 | 18.54038 | 35930 ft | 400 kts | 226° |
| 2026-05-07 12:40 | 49.79470 | 18.47363 | 35931 ft | 399 kts | 229° |
| 2026-05-07 12:41 | 49.75986 | 18.40672 | 35931 ft | 399 kts | 229° |
| 2026-05-07 12:41 | 49.72475 | 18.34019 | 35942 ft | 399 kts | 229° |
| 2026-05-07 12:42 | 49.68959 | 18.27377 | 35940 ft | 400 kts | 228° |
| 2026-05-07 12:42 | 49.65435 | 18.20740 | 35935 ft | 399 kts | 228° |
| 2026-05-07 12:43 | 49.61915 | 18.14129 | 35936 ft | 399 kts | 228° |
| 2026-05-07 12:43 | 49.58389 | 18.07525 | 35934 ft | 399 kts | 228° |
| 2026-05-07 12:44 | 49.54858 | 18.00930 | 35934 ft | 399 kts | 228° |
| 2026-05-07 12:44 | 49.51325 | 17.94355 | 35936 ft | 399 kts | 228° |
| 2026-05-07 12:45 | 49.47791 | 17.87780 | 35930 ft | 399 kts | 228° |
| 2026-05-07 12:45 | 49.44260 | 17.81225 | 35937 ft | 398 kts | 228° |
| 2026-05-07 12:46 | 49.40722 | 17.74686 | 35939 ft | 398 kts | 228° |
| 2026-05-07 12:46 | 49.37187 | 17.68160 | 35936 ft | 398 kts | 228° |
| 2026-05-07 12:47 | 49.33640 | 17.61652 | 35936 ft | 398 kts | 227° |
| 2026-05-07 12:47 | 49.30082 | 17.55158 | 35933 ft | 398 kts | 228° |
| 2026-05-07 12:48 | 49.26534 | 17.48654 | 35938 ft | 398 kts | 228° |
| 2026-05-07 12:48 | 49.22985 | 17.42165 | 35938 ft | 397 kts | 228° |
| 2026-05-07 12:49 | 49.19454 | 17.35743 | 35956 ft | 397 kts | 227° |
| 2026-05-07 12:49 | 49.15900 | 17.29289 | 35959 ft | 397 kts | 227° |
| 2026-05-07 12:50 | 49.12340 | 17.22836 | 35957 ft | 397 kts | 227° |
| 2026-05-07 12:50 | 49.08783 | 17.16404 | 35956 ft | 396 kts | 227° |
| 2026-05-07 12:51 | 49.05237 | 17.09963 | 35953 ft | 396 kts | 228° |
| 2026-05-07 12:51 | 49.01686 | 17.03545 | 35949 ft | 396 kts | 227° |
| 2026-05-07 12:52 | 48.98119 | 16.97130 | 35946 ft | 396 kts | 227° |
| 2026-05-07 12:52 | 48.94547 | 16.90736 | 35982 ft | 396 kts | 227° |
| 2026-05-07 12:53 | 48.90975 | 16.84345 | 35950 ft | 397 kts | 227° |
| 2026-05-07 12:53 | 48.87391 | 16.77962 | 35947 ft | 397 kts | 227° |
| 2026-05-07 12:54 | 48.83809 | 16.71590 | 35947 ft | 397 kts | 227° |
| 2026-05-07 12:54 | 48.80221 | 16.65222 | 35943 ft | 397 kts | 227° |
| 2026-05-07 12:55 | 48.76914 | 16.58507 | 35946 ft | 399 kts | 234° |
| 2026-05-07 12:55 | 48.73941 | 16.51422 | 35945 ft | 398 kts | 235° |
| 2026-05-07 12:56 | 48.70956 | 16.44357 | 35944 ft | 398 kts | 234° |
| 2026-05-07 12:56 | 48.67965 | 16.37306 | 35943 ft | 398 kts | 234° |
| 2026-05-07 12:57 | 48.64975 | 16.30270 | 35945 ft | 398 kts | 234° |
| 2026-05-07 12:57 | 48.61973 | 16.23236 | 35961 ft | 399 kts | 234° |
| 2026-05-07 12:58 | 48.58945 | 16.16194 | 35944 ft | 401 kts | 234° |
| 2026-05-07 12:58 | 48.55911 | 16.09117 | 35950 ft | 402 kts | 234° |
| 2026-05-07 12:59 | 48.52870 | 16.02046 | 35946 ft | 402 kts | 234° |
| 2026-05-07 12:59 | 48.49821 | 15.94985 | 35952 ft | 402 kts | 234° |
| 2026-05-07 13:00 | 48.46786 | 15.87984 | 35950 ft | 401 kts | 234° |
| 2026-05-07 13:00 | 48.43734 | 15.80946 | 35958 ft | 401 kts | 234° |
| 2026-05-07 13:01 | 48.40676 | 15.73910 | 35957 ft | 401 kts | 234° |
| 2026-05-07 13:01 | 48.37624 | 15.66888 | 35986 ft | 401 kts | 234° |
| 2026-05-07 13:02 | 48.34522 | 15.59806 | 35968 ft | 404 kts | 234° |
| 2026-05-07 13:02 | 48.31463 | 15.52793 | 35962 ft | 404 kts | 235° |
| 2026-05-07 13:03 | 48.28346 | 15.45712 | 35963 ft | 404 kts | 234° |
| 2026-05-07 13:03 | 48.25270 | 15.38731 | 35962 ft | 403 kts | 234° |
| 2026-05-07 13:04 | 48.22178 | 15.31745 | 35966 ft | 401 kts | 234° |
| 2026-05-07 13:04 | 48.19100 | 15.24759 | 35967 ft | 401 kts | 235° |
| 2026-05-07 13:05 | 48.16019 | 15.17790 | 35971 ft | 401 kts | 234° |
| 2026-05-07 13:05 | 48.12923 | 15.10825 | 35972 ft | 402 kts | 234° |
| 2026-05-07 13:06 | 48.09817 | 15.03864 | 35984 ft | 404 kts | 235° |
| 2026-05-07 13:06 | 48.06687 | 14.96876 | 35971 ft | 404 kts | 235° |
| 2026-05-07 13:07 | 48.03559 | 14.89903 | 35966 ft | 404 kts | 234° |
| 2026-05-07 13:07 | 48.00428 | 14.82931 | 35969 ft | 404 kts | 234° |
| 2026-05-07 13:08 | 47.97293 | 14.75967 | 35978 ft | 404 kts | 234° |
| 2026-05-07 13:08 | 47.94153 | 14.69028 | 35972 ft | 404 kts | 234° |
| 2026-05-07 13:09 | 47.91013 | 14.62097 | 35965 ft | 404 kts | 234° |
| 2026-05-07 13:09 | 47.87863 | 14.55155 | 35968 ft | 404 kts | 234° |
| 2026-05-07 13:10 | 47.84707 | 14.48224 | 35995 ft | 405 kts | 234° |
| 2026-05-07 13:10 | 47.81537 | 14.41279 | 35979 ft | 406 kts | 234° |
| 2026-05-07 13:11 | 47.78380 | 14.34379 | 35980 ft | 406 kts | 234° |
| 2026-05-07 13:11 | 47.75195 | 14.27438 | 35991 ft | 406 kts | 234° |
| 2026-05-07 13:12 | 47.72016 | 14.20530 | 35983 ft | 405 kts | 234° |
| 2026-05-07 13:12 | 47.68839 | 14.13634 | 35986 ft | 404 kts | 234° |
| 2026-05-07 13:13 | 47.65662 | 14.06762 | 35983 ft | 404 kts | 234° |
| 2026-05-07 13:13 | 47.62473 | 13.99887 | 35995 ft | 404 kts | 234° |
| 2026-05-07 13:14 | 47.59288 | 13.93018 | 36010 ft | 405 kts | 234° |
| 2026-05-07 13:14 | 47.56080 | 13.86136 | 35986 ft | 407 kts | 234° |
| 2026-05-07 13:15 | 47.52864 | 13.79250 | 35984 ft | 406 kts | 234° |
| 2026-05-07 13:15 | 47.49646 | 13.72370 | 35990 ft | 407 kts | 234° |
| 2026-05-07 13:16 | 47.46422 | 13.65499 | 35988 ft | 407 kts | 234° |
| 2026-05-07 13:16 | 47.43176 | 13.58652 | 35987 ft | 407 kts | 234° |
| 2026-05-07 13:17 | 47.39943 | 13.51801 | 35998 ft | 406 kts | 234° |
| 2026-05-07 13:17 | 47.36712 | 13.44966 | 35975 ft | 406 kts | 234° |
| 2026-05-07 13:18 | 47.33477 | 13.38143 | 36007 ft | 406 kts | 234° |
| 2026-05-07 13:18 | 47.30223 | 13.31302 | 36001 ft | 408 kts | 235° |
| 2026-05-07 13:19 | 47.26963 | 13.24457 | 35986 ft | 409 kts | 234° |
| 2026-05-07 13:19 | 47.23700 | 13.17604 | 35974 ft | 408 kts | 234° |
| 2026-05-07 13:20 | 47.20988 | 13.11933 | 35780 ft | 406 kts | 235° |
| 2026-05-07 13:20 | 47.19366 | 13.08548 | 35556 ft | 405 kts | 234° |
| 2026-05-07 13:20 | 47.17746 | 13.05168 | 35333 ft | 403 kts | 235° |
| 2026-05-07 13:21 | 47.16137 | 13.01811 | 35088 ft | 401 kts | 234° |
| 2026-05-07 13:21 | 47.14531 | 12.98475 | 34850 ft | 399 kts | 234° |
| 2026-05-07 13:21 | 47.12927 | 12.95145 | 34617 ft | 399 kts | 235° |
| 2026-05-07 13:21 | 47.11329 | 12.91822 | 34387 ft | 399 kts | 234° |
| 2026-05-07 13:22 | 47.09730 | 12.88503 | 34160 ft | 398 kts | 235° |
| 2026-05-07 13:22 | 47.08134 | 12.85192 | 33923 ft | 397 kts | 234° |
| 2026-05-07 13:22 | 47.06541 | 12.81893 | 33653 ft | 396 kts | 235° |
| 2026-05-07 13:22 | 47.04943 | 12.78591 | 33377 ft | 397 kts | 235° |
| 2026-05-07 13:23 | 47.03343 | 12.75294 | 33104 ft | 397 kts | 234° |
| 2026-05-07 13:23 | 47.01741 | 12.72001 | 32949 ft | 397 kts | 234° |
| 2026-05-07 13:23 | 46.98527 | 12.65400 | 32962 ft | 398 kts | 234° |
| 2026-05-07 13:24 | 46.95297 | 12.58809 | 32983 ft | 398 kts | 234° |
| 2026-05-07 13:24 | 46.92072 | 12.52214 | 33004 ft | 398 kts | 234° |
| 2026-05-07 13:25 | 46.88850 | 12.45638 | 33008 ft | 397 kts | 235° |
| 2026-05-07 13:25 | 46.85633 | 12.39077 | 33033 ft | 397 kts | 235° |
| 2026-05-07 13:26 | 46.82413 | 12.32524 | 33045 ft | 397 kts | 234° |
| 2026-05-07 13:26 | 46.79415 | 12.25758 | 33061 ft | 399 kts | 243° |
| 2026-05-07 13:27 | 46.76932 | 12.18495 | 32967 ft | 400 kts | 244° |
| 2026-05-07 13:27 | 46.74454 | 12.11221 | 32959 ft | 400 kts | 243° |
| 2026-05-07 13:28 | 46.71975 | 12.04013 | 32958 ft | 397 kts | 244° |
| 2026-05-07 13:28 | 46.69495 | 11.96820 | 32967 ft | 397 kts | 243° |
| 2026-05-07 13:29 | 46.67028 | 11.89683 | 32956 ft | 397 kts | 243° |
| 2026-05-07 13:29 | 46.64544 | 11.82510 | 32956 ft | 397 kts | 243° |
| 2026-05-07 13:30 | 46.62052 | 11.75344 | 32957 ft | 397 kts | 243° |
| 2026-05-07 13:30 | 46.59559 | 11.68187 | 32955 ft | 397 kts | 243° |
| 2026-05-07 13:31 | 46.57060 | 11.61046 | 32937 ft | 396 kts | 243° |
| 2026-05-07 13:31 | 46.54562 | 11.53921 | 32942 ft | 395 kts | 243° |
| 2026-05-07 13:32 | 46.52060 | 11.46811 | 32936 ft | 396 kts | 243° |
| 2026-05-07 13:32 | 46.49556 | 11.39693 | 32929 ft | 395 kts | 243° |
| 2026-05-07 13:33 | 46.47047 | 11.32595 | 32939 ft | 396 kts | 243° |
| 2026-05-07 13:33 | 46.44520 | 11.25467 | 32936 ft | 398 kts | 244° |
| 2026-05-07 13:34 | 46.40724 | 11.14786 | 32954 ft | 396 kts | 244° |
| 2026-05-07 13:34 | 46.39463 | 11.11251 | 33064 ft | 394 kts | 244° |
| 2026-05-07 13:35 | 46.38217 | 11.07758 | 32650 ft | 386 kts | 244° |
| 2026-05-07 13:35 | 46.36989 | 11.04321 | 32060 ft | 382 kts | 244° |
| 2026-05-07 13:35 | 46.35772 | 11.00921 | 31492 ft | 378 kts | 244° |
| 2026-05-07 13:35 | 46.34570 | 10.97565 | 30959 ft | 374 kts | 244° |
| 2026-05-07 13:36 | 46.33378 | 10.94246 | 30468 ft | 369 kts | 244° |
| 2026-05-07 13:36 | 46.32221 | 10.91021 | 29967 ft | 364 kts | 244° |
| 2026-05-07 13:36 | 46.31057 | 10.87785 | 29397 ft | 360 kts | 244° |
| 2026-05-07 13:36 | 46.29915 | 10.84591 | 28878 ft | 355 kts | 245° |
| 2026-05-07 13:37 | 46.28810 | 10.81407 | 28413 ft | 352 kts | 245° |
| 2026-05-07 13:37 | 46.27721 | 10.78254 | 27946 ft | 349 kts | 245° |
| 2026-05-07 13:37 | 46.26645 | 10.75143 | 27504 ft | 345 kts | 245° |
| 2026-05-07 13:37 | 46.25574 | 10.72057 | 27058 ft | 342 kts | 245° |
| 2026-05-07 13:38 | 46.24509 | 10.68997 | 26586 ft | 339 kts | 245° |
| 2026-05-07 13:38 | 46.23454 | 10.65971 | 26152 ft | 336 kts | 245° |
| 2026-05-07 13:38 | 46.22404 | 10.62967 | 25702 ft | 334 kts | 245° |
| 2026-05-07 13:38 | 46.21362 | 10.59989 | 25298 ft | 331 kts | 245° |
| 2026-05-07 13:39 | 46.20328 | 10.57037 | 24886 ft | 328 kts | 245° |
| 2026-05-07 13:39 | 46.19299 | 10.54108 | 24447 ft | 327 kts | 245° |
| 2026-05-07 13:39 | 46.18274 | 10.51187 | 24034 ft | 326 kts | 245° |
| 2026-05-07 13:39 | 46.17249 | 10.48268 | 23616 ft | 326 kts | 245° |
| 2026-05-07 13:40 | 46.16224 | 10.45348 | 23138 ft | 325 kts | 245° |
| 2026-05-07 13:40 | 46.15203 | 10.42445 | 22669 ft | 323 kts | 245° |
| 2026-05-07 13:40 | 46.14188 | 10.39566 | 22244 ft | 321 kts | 245° |
| 2026-05-07 13:40 | 46.13176 | 10.36702 | 21807 ft | 320 kts | 245° |
| 2026-05-07 13:41 | 46.12167 | 10.33846 | 21370 ft | 319 kts | 245° |
| 2026-05-07 13:41 | 46.11161 | 10.31004 | 20932 ft | 318 kts | 245° |
| 2026-05-07 13:41 | 46.10163 | 10.28181 | 20512 ft | 315 kts | 245° |
| 2026-05-07 13:41 | 46.09175 | 10.25391 | 20115 ft | 311 kts | 245° |
| 2026-05-07 13:42 | 46.08196 | 10.22634 | 19722 ft | 307 kts | 245° |
| 2026-05-07 13:42 | 46.07229 | 10.19907 | 19345 ft | 305 kts | 245° |
| 2026-05-07 13:42 | 46.06269 | 10.17207 | 18940 ft | 301 kts | 244° |
| 2026-05-07 13:42 | 46.05319 | 10.14539 | 18596 ft | 298 kts | 244° |
| 2026-05-07 13:43 | 46.04287 | 10.11967 | 18219 ft | 296 kts | 234° |
| 2026-05-07 13:43 | 46.02817 | 10.09905 | 17827 ft | 295 kts | 220° |
| 2026-05-07 13:43 | 46.01185 | 10.08129 | 17454 ft | 294 kts | 219° |
| 2026-05-07 13:43 | 45.99569 | 10.06404 | 17081 ft | 292 kts | 219° |
| 2026-05-07 13:44 | 45.97950 | 10.04660 | 16720 ft | 290 kts | 219° |
| 2026-05-07 13:44 | 45.96348 | 10.02923 | 16378 ft | 288 kts | 219° |
| 2026-05-07 13:44 | 45.94752 | 10.01187 | 16056 ft | 287 kts | 219° |
| 2026-05-07 13:44 | 45.93165 | 9.99455 | 15731 ft | 286 kts | 219° |
| 2026-05-07 13:45 | 45.91585 | 9.97732 | 15416 ft | 285 kts | 219° |
| 2026-05-07 13:45 | 45.90009 | 9.96013 | 15094 ft | 284 kts | 219° |
| 2026-05-07 13:45 | 45.88440 | 9.94301 | 14753 ft | 283 kts | 219° |
| 2026-05-07 13:45 | 45.86961 | 9.92681 | 14436 ft | 283 kts | 219° |
| 2026-05-07 13:46 | 45.85351 | 9.90916 | 14098 ft | 283 kts | 219° |
| 2026-05-07 13:46 | 45.83698 | 9.89379 | 13553 ft | 287 kts | 205° |
| 2026-05-07 13:46 | 45.81748 | 9.88556 | 12791 ft | 297 kts | 194° |
| 2026-05-07 13:46 | 45.79695 | 9.87942 | 12021 ft | 306 kts | 193° |
| 2026-05-07 13:47 | 45.77614 | 9.87323 | 11515 ft | 304 kts | 193° |
| 2026-05-07 13:47 | 45.75558 | 9.86693 | 11098 ft | 299 kts | 193° |
| 2026-05-07 13:47 | 45.73544 | 9.86066 | 10718 ft | 294 kts | 194° |
| 2026-05-07 13:47 | 45.71570 | 9.85445 | 10361 ft | 287 kts | 194° |
| 2026-05-07 13:48 | 45.69627 | 9.84829 | 10025 ft | 285 kts | 194° |
| 2026-05-07 13:48 | 45.67696 | 9.84215 | 9673 ft | 284 kts | 194° |
| 2026-05-07 13:48 | 45.65765 | 9.83601 | 9298 ft | 284 kts | 194° |
| 2026-05-07 13:48 | 45.63839 | 9.82988 | 8924 ft | 283 kts | 194° |
| 2026-05-07 13:49 | 45.61917 | 9.82376 | 8556 ft | 283 kts | 194° |
| 2026-05-07 13:49 | 45.59992 | 9.81764 | 8188 ft | 283 kts | 194° |
| 2026-05-07 13:49 | 45.58078 | 9.81155 | 7845 ft | 280 kts | 194° |
| 2026-05-07 13:49 | 45.56194 | 9.80604 | 7587 ft | 272 kts | 188° |
| 2026-05-07 13:50 | 45.54354 | 9.80835 | 7392 ft | 264 kts | 162° |
| 2026-05-07 13:50 | 45.52843 | 9.82225 | 7144 ft | 260 kts | 133° |
| 2026-05-07 13:50 | 45.51944 | 9.84451 | 6810 ft | 262 kts | 109° |
| 2026-05-07 13:50 | 45.51481 | 9.86964 | 6462 ft | 263 kts | 103° |
| 2026-05-07 13:51 | 45.51076 | 9.89409 | 6181 ft | 260 kts | 104° |
| 2026-05-07 13:51 | 45.50640 | 9.91864 | 6004 ft | 250 kts | 104° |
| 2026-05-07 13:51 | 45.50496 | 9.94279 | 5930 ft | 244 kts | 79° |
| 2026-05-07 13:51 | 45.51199 | 9.96444 | 5895 ft | 243 kts | 46° |
| 2026-05-07 13:52 | 45.52591 | 9.97710 | 5632 ft | 238 kts | 16° |
| 2026-05-07 13:52 | 45.54192 | 9.98269 | 5302 ft | 236 kts | 10° |
| 2026-05-07 13:52 | 45.55794 | 9.98771 | 4958 ft | 236 kts | 11° |
| 2026-05-07 13:52 | 45.57388 | 9.99310 | 4608 ft | 235 kts | 12° |
| 2026-05-07 13:53 | 45.58977 | 9.99805 | 4267 ft | 233 kts | 4° |
| 2026-05-07 13:53 | 45.60534 | 9.99461 | 3987 ft | 228 kts | 332° |
| 2026-05-07 13:53 | 45.61688 | 9.97968 | 3826 ft | 225 kts | 300° |
| 2026-05-07 13:53 | 45.62291 | 9.95925 | 3710 ft | 223 kts | 285° |
| 2026-05-07 13:54 | 45.62644 | 9.93782 | 3677 ft | 217 kts | 281° |
| 2026-05-07 13:54 | 45.62948 | 9.91723 | 3483 ft | 207 kts | 282° |
| 2026-05-07 13:54 | 45.63260 | 9.89816 | 3308 ft | 194 kts | 283° |
| 2026-05-07 13:54 | 45.63587 | 9.87948 | 3049 ft | 189 kts | 283° |
| 2026-05-07 13:55 | 45.63915 | 9.86158 | 2775 ft | 183 kts | 284° |
| 2026-05-07 13:55 | 45.64220 | 9.84513 | 2560 ft | 168 kts | 283° |
| 2026-05-07 13:55 | 45.64503 | 9.82989 | 2327 ft | 150 kts | 284° |
| 2026-05-07 13:55 | 45.64753 | 9.81644 | 2104 ft | 135 kts | 284° |
| 2026-05-07 13:56 | 45.64995 | 9.80338 | 1910 ft | 136 kts | 282° |
| 2026-05-07 13:56 | 45.65224 | 9.79033 | 1763 ft | 136 kts | 282° |
| 2026-05-07 13:56 | 45.65457 | 9.77726 | 1577 ft | 135 kts | 284° |
| 2026-05-07 13:56 | 45.65706 | 9.76440 | 1421 ft | 133 kts | 283° |
| 2026-05-07 13:57 | 45.65952 | 9.75164 | 1242 ft | 134 kts | 283° |
| 2026-05-07 13:57 | 45.66197 | 9.73891 | 1033 ft | 133 kts | 282° |
| 2026-05-07 13:57 | 45.66428 | 9.72615 | 848 ft | 132 kts | 282° |
| 2026-05-07 13:57 | 45.66650 | 9.71405 | 793 ft | 109 kts | 284° |
| 2026-05-07 13:58 | 45.66793 | 9.70637 | 793 ft | 52 kts | 284° |
| 2026-05-07 13:58 | 45.66863 | 9.70261 | 792 ft | 19 kts | 285° |
| 2026-05-07 13:58 | 45.66894 | 9.70067 | 792 ft | 21 kts | 273° |
| 2026-05-07 13:58 | 45.66867 | 9.69953 | 792 ft | 9 kts | 241° |
| 2026-05-07 13:59 | 45.66834 | 9.69869 | 793 ft | 11 kts | 241° |
| 2026-05-07 13:59 | 45.66797 | 9.69770 | 793 ft | 11 kts | 247° |
| 2026-05-07 13:59 | 45.66799 | 9.69696 | 793 ft | 3 kts | 286° |
| 2026-05-07 13:59 | 45.66804 | 9.69674 | 793 ft | 1 kts | 285° |
| 2026-05-07 14:00 | 45.66805 | 9.69668 | 793 ft | 1 kts | 285° |
| 2026-05-07 14:00 | 45.66810 | 9.69643 | 793 ft | 4 kts | 285° |
| 2026-05-07 14:00 | 45.66788 | 9.69613 | 793 ft | 6 kts | 196° |
| 2026-05-07 14:00 | 45.66746 | 9.69597 | 793 ft | 5 kts | 193° |
| 2026-05-07 14:01 | 45.66739 | 9.69595 | 793 ft | 2 kts | 193° |
| 2026-05-07 14:01 | 45.66723 | 9.69589 | 793 ft | 0 kts | 194° |